WetterOnline ( https://www.wetteronline.de )

Wetter aktuell Fuchsmühl

Aktuelles Wetter: Cheb (490m)

6-stündlich | Neueste Meldungen
Ortszeit Temperatur Wetter
Di, 16.07. 8:00 18.4° C wolkig
Di, 16.07. 2:00 18.9° C bedeckt
Mo, 15.07. 20:00 26.9° C leicht bewölkt
Mo, 15.07. 14:00 27.4° C fast wolkenlos
Mo, 15.07. 8:00 15.8° C fast wolkenlos
Mo, 15.07. 2:00 13.5° C fast wolkenlos
So, 14.07. 20:00 22.1° C leicht bewölkt
So, 14.07. 14:00 24.2° C wolkig
Ortszeit Temperatur Wetter
Di, 16.07. 13:00 21.3° C wolkig
Di, 16.07. 12:00 20.7° C bedeckt
Di, 16.07. 11:00 19.7° C bedeckt
Di, 16.07. 10:00 19.9° C bedeckt
Di, 16.07. 9:00 18.6° C bewölkt
Di, 16.07. 8:00 18.4° C wolkig
Ortszeit Relative Feuchte Sichtweite
Di, 16.07. 8:00 92% 25 km
Di, 16.07. 2:00 80% 35 km
Mo, 15.07. 20:00 41% 50 km
Mo, 15.07. 14:00 37% 60 km
Mo, 15.07. 8:00 78% 50 km
Mo, 15.07. 2:00 90% 35 km
So, 14.07. 20:00 42% 50 km
So, 14.07. 14:00 38% 70 km
Ortszeit Relative Feuchte Sichtweite
Di, 16.07. 13:00 68% 45 km
Di, 16.07. 12:00 79% 40 km
Di, 16.07. 11:00 83% 40 km
Di, 16.07. 10:00 84% 35 km
Di, 16.07. 9:00 91% 25 km
Di, 16.07. 8:00 92% 25 km
Ortszeit Niederschlagsmenge Niederschlagsart
Di, 16.07. 8:00 9 l/m2 in 12 Std. -
Di, 16.07. 2:00 0.0 l/m2 in 6 Std. -
Mo, 15.07. 20:00 0.0 l/m2 in 12 Std. -
Mo, 15.07. 14:00 0.0 l/m2 in 6 Std. -
Mo, 15.07. 8:00 0.0 l/m2 in 12 Std. -
Mo, 15.07. 2:00 0.0 l/m2 in 6 Std. -
So, 14.07. 20:00 0.0 l/m2 in 12 Std. -
So, 14.07. 14:00 0.0 l/m2 in 6 Std. -
Ortszeit Niederschlagsmenge Niederschlagsart
Di, 16.07. 13:00 0.0 l/m2 in 1 Std. -
Di, 16.07. 12:00 0.0 l/m2 in 1 Std. -
Di, 16.07. 11:00 0.0 l/m2 in 1 Std. -
Di, 16.07. 10:00 0.0 l/m2 in 1 Std. -
Di, 16.07. 9:00 0.0 l/m2 in 1 Std. -
Di, 16.07. 8:00 0.0 l/m2 in 1 Std. -
Ortszeit Stärke Spitze Richtung
km/h Bft. km/h Grad Sektor
Di, 16.07. 8:00 7 2 40 210° SW
Di, 16.07. 2:00 4 1 - uml. uml.
Mo, 15.07. 20:00 4 1 - 180° S
Mo, 15.07. 14:00 14 3 - 210° SW
Mo, 15.07. 8:00 4 1 - uml. uml.
Mo, 15.07. 2:00 0 0 - - -
So, 14.07. 20:00 7 2 - 250° W
So, 14.07. 14:00 18 3 - 200° S
Ortszeit Stärke Spitze Richtung
km/h Bft. km/h Grad Sektor
Di, 16.07. 13:00 14 3 - 250° W
Di, 16.07. 12:00 11 2 - 220° SW
Di, 16.07. 11:00 11 2 - 240° SW
Di, 16.07. 10:00 14 3 - 230° SW
Di, 16.07. 9:00 7 2 - 180° S
Di, 16.07. 8:00 7 2 40 210° SW
Ortszeit Untergrenze Bedeckung Gattung
total tief tief mittel hoch
Di, 16.07. 8:00 240 m 7/8 2/8 Cu - Ci
Di, 16.07. 2:00 3600 m - 8/8 - - -
Mo, 15.07. 20:00 3000 m 5/8 1/8 - Ac Ci
Mo, 15.07. 14:00 1800 m 1/8 1/8 Cu - Ci
Mo, 15.07. 8:00 3000 m 1/8 1/8 - Ac Ci
Mo, 15.07. 2:00 3600 m - 1/8 - - -
So, 14.07. 20:00 5700 m 7/8 0/8 - - Cs
So, 14.07. 14:00 1500 m 5/8 5/8 Cu - -
Ortszeit Bedeckungsgrad in Achtel und Wolkenuntergrenze
Di, 16.07. 13:00 5(750m) 5(4200m) 7(5100m)
Di, 16.07. 12:00 7(540m) 7(5100m) 8
Di, 16.07. 11:00 7(420m)
Di, 16.07. 10:00 7(450m)
Di, 16.07. 9:00 6(390m) 7(5400m)
Di, 16.07. 8:00 2(240m) 7(5700m)
Ortszeit Luftdruck NN (hPa) Tendenz (hPa in 3 Std.)
Di, 16.07. 8:00 1013 - 0,2
Di, 16.07. 2:00 1010 - 0,5
Mo, 15.07. 20:00 1009 - 1,0
Mo, 15.07. 14:00 1011 - 1,0
Mo, 15.07. 8:00 1015 + 0,2
Mo, 15.07. 2:00 1016 + 0,3
So, 14.07. 20:00 1014 + 0,5
So, 14.07. 14:00 1013 - 0,6
Ortszeit Luftdruck NN (hPa) Tendenz (hPa in 3 Std.)
Di, 16.07. 13:00 1014 + 0,7
Di, 16.07. 12:00 1014 + 1,0
Di, 16.07. 11:00 1014 + 1,4
Di, 16.07. 10:00 1013 + 1,2
Di, 16.07. 9:00 1013 + 0,6
Di, 16.07. 8:00 1013 - 0,2
Ortszeit Schneehöhe (cm)
Di, 16.07. 8:00 -
Di, 16.07. 2:00 -
Mo, 15.07. 20:00 -
Mo, 15.07. 14:00 -
Mo, 15.07. 8:00 -
Mo, 15.07. 2:00 -
So, 14.07. 20:00 -
So, 14.07. 14:00 -
Ortszeit Schneehöhe (cm)
Di, 16.07. 13:00 -
Di, 16.07. 12:00 -
Di, 16.07. 11:00 -
Di, 16.07. 10:00 -
Di, 16.07. 9:00 -
Di, 16.07. 8:00 -
Link zu dieser Seite / Seite empfehlen

Das Wetter in ...